Dreyfus, Kentucky
Current Conditions -  °F | °C
As of 7:15 AM on Monday 24 Nov 2014 (Local Time) from KI39 Reporting Station
Broken Clouds Broken Clouds  
Wind Chill: 59°   Ceiling: 4600
Heat Index: 59°   Visibility: 10mi
Dew Point: 52°   Wind: 20mph
Humidity: 77%   Direction: 190°S
Pressure: 29.46"   Gusts: 26mph
Location:  37.7874°N, 84.1208°W
Report Text: KI39 241215Z AUTO 19017G23KT 10SM SCT028 SCT038 BKN046 15/11 A2946 RMK AO2
Loading
Personal Weather Stations






























Interactive Weather Map New forecast layout! Learn more

10-Day Weather Forecast

Advertisements
Track Severe Weather on mobile